sensor_id;sensor_type;location;lat;lon;timestamp;P1;durP1;ratioP1;P2;durP2;ratioP2
21820;SDS011;11073;48.586;12.066;2023-05-10T00:01:53;8.70;;;5.63;;
21820;SDS011;11073;48.586;12.066;2023-05-10T00:04:21;7.45;;;5.00;;
21820;SDS011;11073;48.586;12.066;2023-05-10T00:06:54;5.25;;;4.75;;
21820;SDS011;11073;48.586;12.066;2023-05-10T00:09:23;5.18;;;4.68;;
21820;SDS011;11073;48.586;12.066;2023-05-10T00:11:52;7.97;;;5.03;;
21820;SDS011;11073;48.586;12.066;2023-05-10T00:14:21;5.50;;;4.90;;
21820;SDS011;11073;48.586;12.066;2023-05-10T00:16:49;5.22;;;4.70;;
21820;SDS011;11073;48.586;12.066;2023-05-10T00:19:20;6.15;;;5.45;;
21820;SDS011;11073;48.586;12.066;2023-05-10T00:21:48;5.53;;;4.95;;
21820;SDS011;11073;48.586;12.066;2023-05-10T00:24:17;6.30;;;5.28;;
21820;SDS011;11073;48.586;12.066;2023-05-10T00:26:46;6.35;;;5.15;;
21820;SDS011;11073;48.586;12.066;2023-05-10T00:29:15;7.47;;;5.97;;
21820;SDS011;11073;48.586;12.066;2023-05-10T00:31:43;6.10;;;5.40;;
21820;SDS011;11073;48.586;12.066;2023-05-10T00:34:12;7.45;;;5.60;;
21820;SDS011;11073;48.586;12.066;2023-05-10T00:36:42;6.45;;;5.60;;
21820;SDS011;11073;48.586;12.066;2023-05-10T00:39:11;8.45;;;5.85;;
21820;SDS011;11073;48.586;12.066;2023-05-10T00:41:40;7.13;;;5.88;;
21820;SDS011;11073;48.586;12.066;2023-05-10T00:44:09;7.97;;;5.93;;
21820;SDS011;11073;48.586;12.066;2023-05-10T00:46:38;6.50;;;5.78;;
21820;SDS011;11073;48.586;12.066;2023-05-10T00:49:07;7.93;;;6.03;;
21820;SDS011;11073;48.586;12.066;2023-05-10T00:51:36;6.90;;;6.20;;
21820;SDS011;11073;48.586;12.066;2023-05-10T00:54:07;6.82;;;5.97;;
21820;SDS011;11073;48.586;12.066;2023-05-10T00:56:35;6.35;;;5.75;;
21820;SDS011;11073;48.586;12.066;2023-05-10T00:59:04;8.30;;;7.50;;
21820;SDS011;11073;48.586;12.066;2023-05-10T01:01:33;9.85;;;7.15;;
21820;SDS011;11073;48.586;12.066;2023-05-10T01:04:04;8.43;;;7.53;;
21820;SDS011;11073;48.586;12.066;2023-05-10T01:06:33;9.30;;;6.97;;
21820;SDS011;11073;48.586;12.066;2023-05-10T01:09:02;9.60;;;6.90;;
21820;SDS011;11073;48.586;12.066;2023-05-10T01:11:32;9.52;;;6.80;;
21820;SDS011;11073;48.586;12.066;2023-05-10T01:14:01;7.88;;;6.72;;
21820;SDS011;11073;48.586;12.066;2023-05-10T01:16:31;8.05;;;7.25;;
21820;SDS011;11073;48.586;12.066;2023-05-10T01:19:04;9.73;;;7.25;;
21820;SDS011;11073;48.586;12.066;2023-05-10T01:21:42;8.88;;;7.93;;
21820;SDS011;11073;48.586;12.066;2023-05-10T01:30:50;8.50;;;7.68;;
21820;SDS011;11073;48.586;12.066;2023-05-10T01:33:34;8.07;;;6.60;;
21820;SDS011;11073;48.586;12.066;2023-05-10T01:36:08;7.00;;;6.30;;
21820;SDS011;11073;48.586;12.066;2023-05-10T01:38:46;7.47;;;6.38;;
21820;SDS011;11073;48.586;12.066;2023-05-10T01:41:20;7.78;;;6.03;;
21820;SDS011;11073;48.586;12.066;2023-05-10T01:44:01;5.75;;;5.03;;
21820;SDS011;11073;48.586;12.066;2023-05-10T01:46:36;7.82;;;6.00;;
21820;SDS011;11073;48.586;12.066;2023-05-10T01:49:08;5.95;;;4.60;;
21820;SDS011;11073;48.586;12.066;2023-05-10T01:51:41;5.88;;;5.28;;
21820;SDS011;11073;48.586;12.066;2023-05-10T01:54:17;6.65;;;5.35;;
21820;SDS011;11073;48.586;12.066;2023-05-10T01:56:47;6.55;;;5.15;;
21820;SDS011;11073;48.586;12.066;2023-05-10T01:59:21;6.07;;;5.20;;
21820;SDS011;11073;48.586;12.066;2023-05-10T02:01:52;5.43;;;4.72;;
21820;SDS011;11073;48.586;12.066;2023-05-10T02:04:27;6.47;;;5.15;;
21820;SDS011;11073;48.586;12.066;2023-05-10T02:06:56;7.15;;;4.57;;
21820;SDS011;11073;48.586;12.066;2023-05-10T02:09:26;5.93;;;5.32;;
21820;SDS011;11073;48.586;12.066;2023-05-10T02:11:56;5.20;;;4.70;;
21820;SDS011;11073;48.586;12.066;2023-05-10T02:14:28;3.63;;;3.33;;
21820;SDS011;11073;48.586;12.066;2023-05-10T02:16:58;4.05;;;3.60;;
21820;SDS011;11073;48.586;12.066;2023-05-10T02:19:31;4.93;;;3.90;;
21820;SDS011;11073;48.586;12.066;2023-05-10T02:22:01;4.15;;;3.72;;
21820;SDS011;11073;48.586;12.066;2023-05-10T02:24:32;6.57;;;4.95;;
21820;SDS011;11073;48.586;12.066;2023-05-10T02:27:03;4.90;;;4.40;;
21820;SDS011;11073;48.586;12.066;2023-05-10T02:29:34;5.20;;;4.47;;
21820;SDS011;11073;48.586;12.066;2023-05-10T02:32:05;4.70;;;3.40;;
21820;SDS011;11073;48.586;12.066;2023-05-10T02:34:36;3.72;;;3.28;;
21820;SDS011;11073;48.586;12.066;2023-05-10T02:37:04;4.70;;;3.88;;
21820;SDS011;11073;48.586;12.066;2023-05-10T02:39:33;3.60;;;3.30;;
21820;SDS011;11073;48.586;12.066;2023-05-10T02:42:03;3.58;;;3.28;;
21820;SDS011;11073;48.586;12.066;2023-05-10T02:44:33;2.88;;;2.67;;
21820;SDS011;11073;48.586;12.066;2023-05-10T02:47:04;3.75;;;3.00;;
21820;SDS011;11073;48.586;12.066;2023-05-10T02:49:33;3.13;;;2.83;;
21820;SDS011;11073;48.586;12.066;2023-05-10T02:52:04;3.05;;;2.60;;
21820;SDS011;11073;48.586;12.066;2023-05-10T02:54:38;3.38;;;2.50;;
21820;SDS011;11073;48.586;12.066;2023-05-10T02:58:09;2.53;;;2.30;;
21820;SDS011;11073;48.586;12.066;2023-05-10T03:00:38;3.35;;;1.70;;
21820;SDS011;11073;48.586;12.066;2023-05-10T03:03:07;1.92;;;1.45;;
21820;SDS011;11073;48.586;12.066;2023-05-10T03:05:36;2.30;;;1.77;;
21820;SDS011;11073;48.586;12.066;2023-05-10T03:08:06;2.28;;;1.70;;
21820;SDS011;11073;48.586;12.066;2023-05-10T03:10:38;2.78;;;1.90;;
21820;SDS011;11073;48.586;12.066;2023-05-10T03:13:25;1.67;;;1.58;;
21820;SDS011;11073;48.586;12.066;2023-05-10T03:16:05;2.70;;;1.60;;
21820;SDS011;11073;48.586;12.066;2023-05-10T03:18:39;1.90;;;1.70;;
21820;SDS011;11073;48.586;12.066;2023-05-10T03:21:13;2.33;;;1.30;;
21820;SDS011;11073;48.586;12.066;2023-05-10T03:23:51;2.35;;;1.30;;
21820;SDS011;11073;48.586;12.066;2023-05-10T03:26:27;2.40;;;1.55;;
21820;SDS011;11073;48.586;12.066;2023-05-10T03:29:04;2.53;;;1.70;;
21820;SDS011;11073;48.586;12.066;2023-05-10T03:31:34;1.50;;;1.40;;
21820;SDS011;11073;48.586;12.066;2023-05-10T03:34:04;1.58;;;1.27;;
21820;SDS011;11073;48.586;12.066;2023-05-10T03:36:33;4.07;;;2.00;;
21820;SDS011;11073;48.586;12.066;2023-05-10T03:39:03;2.78;;;1.52;;
21820;SDS011;11073;48.586;12.066;2023-05-10T03:41:33;2.60;;;1.52;;
21820;SDS011;11073;48.586;12.066;2023-05-10T03:44:01;2.55;;;1.30;;
21820;SDS011;11073;48.586;12.066;2023-05-10T03:46:30;1.35;;;1.02;;
21820;SDS011;11073;48.586;12.066;2023-05-10T03:48:59;1.23;;;1.10;;
21820;SDS011;11073;48.586;12.066;2023-05-10T03:51:28;1.77;;;0.80;;
21820;SDS011;11073;48.586;12.066;2023-05-10T03:53:59;1.58;;;1.00;;
21820;SDS011;11073;48.586;12.066;2023-05-10T03:56:29;1.70;;;0.80;;
21820;SDS011;11073;48.586;12.066;2023-05-10T03:58:58;2.00;;;0.98;;
21820;SDS011;11073;48.586;12.066;2023-05-10T04:01:27;1.75;;;0.77;;
21820;SDS011;11073;48.586;12.066;2023-05-10T04:03:56;0.98;;;0.70;;
21820;SDS011;11073;48.586;12.066;2023-05-10T04:06:24;1.30;;;0.70;;
21820;SDS011;11073;48.586;12.066;2023-05-10T04:08:53;0.90;;;0.60;;
21820;SDS011;11073;48.586;12.066;2023-05-10T04:11:23;2.85;;;1.00;;
21820;SDS011;11073;48.586;12.066;2023-05-10T04:13:53;1.20;;;0.80;;
21820;SDS011;11073;48.586;12.066;2023-05-10T04:16:21;0.95;;;0.85;;
21820;SDS011;11073;48.586;12.066;2023-05-10T04:18:50;1.13;;;0.90;;
21820;SDS011;11073;48.586;12.066;2023-05-10T04:21:18;1.38;;;0.70;;
21820;SDS011;11073;48.586;12.066;2023-05-10T04:23:48;1.70;;;1.00;;
21820;SDS011;11073;48.586;12.066;2023-05-10T04:26:16;1.30;;;1.05;;
21820;SDS011;11073;48.586;12.066;2023-05-10T04:28:45;1.00;;;0.90;;
21820;SDS011;11073;48.586;12.066;2023-05-10T04:31:15;1.48;;;1.20;;
21820;SDS011;11073;48.586;12.066;2023-05-10T04:33:44;1.60;;;1.05;;
21820;SDS011;11073;48.586;12.066;2023-05-10T04:36:12;3.75;;;1.20;;
21820;SDS011;11073;48.586;12.066;2023-05-10T04:38:41;2.15;;;1.30;;
21820;SDS011;11073;48.586;12.066;2023-05-10T04:41:11;1.95;;;1.40;;
21820;SDS011;11073;48.586;12.066;2023-05-10T04:43:40;2.08;;;1.20;;
21820;SDS011;11073;48.586;12.066;2023-05-10T04:46:09;1.38;;;1.20;;
21820;SDS011;11073;48.586;12.066;2023-05-10T04:48:39;1.50;;;1.30;;
21820;SDS011;11073;48.586;12.066;2023-05-10T04:51:08;1.30;;;1.00;;
21820;SDS011;11073;48.586;12.066;2023-05-10T04:53:36;1.85;;;1.30;;
21820;SDS011;11073;48.586;12.066;2023-05-10T04:56:05;2.03;;;1.00;;
21820;SDS011;11073;48.586;12.066;2023-05-10T04:58:34;1.38;;;1.27;;
21820;SDS011;11073;48.586;12.066;2023-05-10T05:01:06;1.40;;;1.30;;
21820;SDS011;11073;48.586;12.066;2023-05-10T05:03:39;2.92;;;1.35;;
21820;SDS011;11073;48.586;12.066;2023-05-10T05:06:08;3.63;;;1.60;;
21820;SDS011;11073;48.586;12.066;2023-05-10T05:08:37;1.80;;;1.40;;
21820;SDS011;11073;48.586;12.066;2023-05-10T05:11:06;1.40;;;1.20;;
21820;SDS011;11073;48.586;12.066;2023-05-10T05:13:35;2.75;;;1.30;;
21820;SDS011;11073;48.586;12.066;2023-05-10T05:16:04;2.88;;;1.20;;
21820;SDS011;11073;48.586;12.066;2023-05-10T05:18:33;1.20;;;1.10;;
21820;SDS011;11073;48.586;12.066;2023-05-10T05:21:12;1.83;;;1.15;;
21820;SDS011;11073;48.586;12.066;2023-05-10T05:23:43;1.55;;;1.30;;
21820;SDS011;11073;48.586;12.066;2023-05-10T05:26:12;1.60;;;1.15;;
21820;SDS011;11073;48.586;12.066;2023-05-10T05:28:42;1.75;;;1.10;;
21820;SDS011;11073;48.586;12.066;2023-05-10T05:31:11;2.13;;;1.35;;
21820;SDS011;11073;48.586;12.066;2023-05-10T05:33:40;4.53;;;1.40;;
21820;SDS011;11073;48.586;12.066;2023-05-10T05:36:10;1.38;;;1.00;;
21820;SDS011;11073;48.586;12.066;2023-05-10T05:38:39;0.98;;;0.85;;
21820;SDS011;11073;48.586;12.066;2023-05-10T05:41:08;1.63;;;0.70;;
21820;SDS011;11073;48.586;12.066;2023-05-10T05:43:37;0.32;;;0.28;;
21820;SDS011;11073;48.586;12.066;2023-05-10T05:46:05;0.88;;;0.70;;
21820;SDS011;11073;48.586;12.066;2023-05-10T05:48:34;1.17;;;0.60;;
21820;SDS011;11073;48.586;12.066;2023-05-10T05:51:03;0.55;;;0.50;;
21820;SDS011;11073;48.586;12.066;2023-05-10T05:53:34;1.58;;;0.45;;
21820;SDS011;11073;48.586;12.066;2023-05-10T05:56:04;0.63;;;0.40;;
21820;SDS011;11073;48.586;12.066;2023-05-10T05:58:32;0.88;;;0.43;;
21820;SDS011;11073;48.586;12.066;2023-05-10T06:01:01;2.15;;;0.50;;
21820;SDS011;11073;48.586;12.066;2023-05-10T06:06:09;1.73;;;0.52;;
21820;SDS011;11073;48.586;12.066;2023-05-10T06:08:40;0.95;;;0.52;;
21820;SDS011;11073;48.586;12.066;2023-05-10T06:11:08;0.60;;;0.50;;
21820;SDS011;11073;48.586;12.066;2023-05-10T06:13:37;1.10;;;0.65;;
21820;SDS011;11073;48.586;12.066;2023-05-10T06:16:06;0.90;;;0.50;;
21820;SDS011;11073;48.586;12.066;2023-05-10T06:18:34;0.68;;;0.50;;
21820;SDS011;11073;48.586;12.066;2023-05-10T06:21:03;1.30;;;0.90;;
21820;SDS011;11073;48.586;12.066;2023-05-10T06:23:33;1.45;;;0.93;;
21820;SDS011;11073;48.586;12.066;2023-05-10T06:26:04;1.13;;;0.82;;
21820;SDS011;11073;48.586;12.066;2023-05-10T06:28:32;2.20;;;1.08;;
21820;SDS011;11073;48.586;12.066;2023-05-10T06:31:01;1.48;;;1.25;;
21820;SDS011;11073;48.586;12.066;2023-05-10T06:33:30;1.50;;;1.10;;
21820;SDS011;11073;48.586;12.066;2023-05-10T06:35:59;1.23;;;1.05;;
21820;SDS011;11073;48.586;12.066;2023-05-10T06:38:28;2.53;;;1.02;;
21820;SDS011;11073;48.586;12.066;2023-05-10T06:40:57;1.15;;;0.80;;
21820;SDS011;11073;48.586;12.066;2023-05-10T06:43:27;0.98;;;0.75;;
21820;SDS011;11073;48.586;12.066;2023-05-10T06:45:56;1.10;;;0.90;;
21820;SDS011;11073;48.586;12.066;2023-05-10T06:48:26;2.80;;;0.90;;
21820;SDS011;11073;48.586;12.066;2023-05-10T06:50:54;1.48;;;1.08;;
21820;SDS011;11073;48.586;12.066;2023-05-10T06:53:23;2.47;;;0.80;;
21820;SDS011;11073;48.586;12.066;2023-05-10T06:55:51;0.82;;;0.70;;
21820;SDS011;11073;48.586;12.066;2023-05-10T06:58:20;2.67;;;1.00;;
21820;SDS011;11073;48.586;12.066;2023-05-10T07:00:50;0.73;;;0.70;;
21820;SDS011;11073;48.586;12.066;2023-05-10T07:03:19;1.50;;;0.90;;
21820;SDS011;11073;48.586;12.066;2023-05-10T07:05:47;1.15;;;0.90;;
21820;SDS011;11073;48.586;12.066;2023-05-10T07:08:16;3.00;;;0.70;;
21820;SDS011;11073;48.586;12.066;2023-05-10T07:10:45;1.50;;;0.80;;
21820;SDS011;11073;48.586;12.066;2023-05-10T07:13:14;0.90;;;0.65;;
21820;SDS011;11073;48.586;12.066;2023-05-10T07:15:43;0.80;;;0.80;;
21820;SDS011;11073;48.586;12.066;2023-05-10T07:18:13;1.00;;;0.80;;
21820;SDS011;11073;48.586;12.066;2023-05-10T07:20:42;1.73;;;0.73;;
21820;SDS011;11073;48.586;12.066;2023-05-10T07:23:11;1.27;;;0.60;;
21820;SDS011;11073;48.586;12.066;2023-05-10T07:25:39;0.77;;;0.77;;
21820;SDS011;11073;48.586;12.066;2023-05-10T07:28:08;1.17;;;0.93;;
21820;SDS011;11073;48.586;12.066;2023-05-10T07:30:38;3.22;;;0.90;;
21820;SDS011;11073;48.586;12.066;2023-05-10T07:33:06;1.02;;;0.95;;
21820;SDS011;11073;48.586;12.066;2023-05-10T07:35:37;1.27;;;1.17;;
21820;SDS011;11073;48.586;12.066;2023-05-10T07:38:06;2.20;;;1.00;;
21820;SDS011;11073;48.586;12.066;2023-05-10T07:40:35;1.35;;;0.70;;
21820;SDS011;11073;48.586;12.066;2023-05-10T07:43:03;3.05;;;1.35;;
21820;SDS011;11073;48.586;12.066;2023-05-10T07:45:32;2.30;;;1.23;;
21820;SDS011;11073;48.586;12.066;2023-05-10T07:48:01;2.20;;;1.27;;
21820;SDS011;11073;48.586;12.066;2023-05-10T07:50:30;1.52;;;1.42;;
21820;SDS011;11073;48.586;12.066;2023-05-10T07:53:00;4.00;;;1.50;;
21820;SDS011;11073;48.586;12.066;2023-05-10T07:55:29;3.22;;;1.27;;
21820;SDS011;11073;48.586;12.066;2023-05-10T07:57:58;2.65;;;1.20;;
21820;SDS011;11073;48.586;12.066;2023-05-10T08:00:28;1.50;;;1.17;;
21820;SDS011;11073;48.586;12.066;2023-05-10T08:02:57;1.35;;;1.20;;
21820;SDS011;11073;48.586;12.066;2023-05-10T08:05:26;1.30;;;1.20;;
21820;SDS011;11073;48.586;12.066;2023-05-10T08:07:55;1.50;;;1.40;;
21820;SDS011;11073;48.586;12.066;2023-05-10T08:10:25;3.35;;;1.30;;
21820;SDS011;11073;48.586;12.066;2023-05-10T08:12:54;1.30;;;1.20;;
21820;SDS011;11073;48.586;12.066;2023-05-10T08:15:22;1.40;;;1.10;;
21820;SDS011;11073;48.586;12.066;2023-05-10T08:17:52;1.23;;;1.13;;
21820;SDS011;11073;48.586;12.066;2023-05-10T08:20:21;1.20;;;0.90;;
21820;SDS011;11073;48.586;12.066;2023-05-10T08:22:50;1.10;;;1.00;;
21820;SDS011;11073;48.586;12.066;2023-05-10T08:25:19;1.25;;;1.00;;
21820;SDS011;11073;48.586;12.066;2023-05-10T08:27:49;1.95;;;0.85;;
21820;SDS011;11073;48.586;12.066;2023-05-10T08:30:18;1.23;;;0.60;;
21820;SDS011;11073;48.586;12.066;2023-05-10T08:32:46;1.63;;;0.90;;
21820;SDS011;11073;48.586;12.066;2023-05-10T08:35:15;1.60;;;0.75;;
21820;SDS011;11073;48.586;12.066;2023-05-10T08:37:45;1.33;;;0.70;;
21820;SDS011;11073;48.586;12.066;2023-05-10T08:40:13;1.70;;;0.95;;
21820;SDS011;11073;48.586;12.066;2023-05-10T08:42:45;1.23;;;0.77;;
21820;SDS011;11073;48.586;12.066;2023-05-10T08:45:21;2.97;;;0.70;;
21820;SDS011;11073;48.586;12.066;2023-05-10T08:47:51;3.70;;;0.80;;
21820;SDS011;11073;48.586;12.066;2023-05-10T08:50:21;1.13;;;0.85;;
21820;SDS011;11073;48.586;12.066;2023-05-10T08:52:51;0.95;;;0.88;;
21820;SDS011;11073;48.586;12.066;2023-05-10T08:55:24;1.23;;;1.08;;
21820;SDS011;11073;48.586;12.066;2023-05-10T08:57:53;1.90;;;1.02;;
21820;SDS011;11073;48.586;12.066;2023-05-10T09:00:23;1.00;;;0.90;;
21820;SDS011;11073;48.586;12.066;2023-05-10T09:02:52;1.63;;;0.88;;
21820;SDS011;11073;48.586;12.066;2023-05-10T09:05:22;0.90;;;0.90;;
21820;SDS011;11073;48.586;12.066;2023-05-10T09:07:52;1.17;;;0.95;;
21820;SDS011;11073;48.586;12.066;2023-05-10T09:10:21;2.25;;;0.95;;
21820;SDS011;11073;48.586;12.066;2023-05-10T09:12:52;1.23;;;0.82;;
21820;SDS011;11073;48.586;12.066;2023-05-10T09:15:26;2.25;;;1.02;;
21820;SDS011;11073;48.586;12.066;2023-05-10T09:17:55;1.17;;;0.95;;
21820;SDS011;11073;48.586;12.066;2023-05-10T09:20:26;0.80;;;0.80;;
21820;SDS011;11073;48.586;12.066;2023-05-10T09:22:56;1.08;;;0.98;;
21820;SDS011;11073;48.586;12.066;2023-05-10T09:25:26;1.13;;;0.90;;
21820;SDS011;11073;48.586;12.066;2023-05-10T09:27:55;0.98;;;0.85;;
21820;SDS011;11073;48.586;12.066;2023-05-10T09:30:24;1.65;;;0.70;;
21820;SDS011;11073;48.586;12.066;2023-05-10T09:32:56;0.75;;;0.70;;
21820;SDS011;11073;48.586;12.066;2023-05-10T09:35:27;2.38;;;1.38;;
21820;SDS011;11073;48.586;12.066;2023-05-10T09:37:58;1.00;;;0.80;;
21820;SDS011;11073;48.586;12.066;2023-05-10T09:40:28;1.50;;;0.88;;
21820;SDS011;11073;48.586;12.066;2023-05-10T09:42:58;5.22;;;1.08;;
21820;SDS011;11073;48.586;12.066;2023-05-10T09:45:30;2.25;;;0.90;;
21820;SDS011;11073;48.586;12.066;2023-05-10T09:48:03;1.40;;;1.30;;
21820;SDS011;11073;48.586;12.066;2023-05-10T09:50:32;3.33;;;1.20;;
21820;SDS011;11073;48.586;12.066;2023-05-10T09:53:02;1.50;;;1.30;;
21820;SDS011;11073;48.586;12.066;2023-05-10T09:55:41;0.90;;;0.82;;
21820;SDS011;11073;48.586;12.066;2023-05-10T09:58:12;1.77;;;1.02;;
21820;SDS011;11073;48.586;12.066;2023-05-10T10:00:43;1.38;;;1.08;;
21820;SDS011;11073;48.586;12.066;2023-05-10T10:03:15;1.20;;;1.10;;
21820;SDS011;11073;48.586;12.066;2023-05-10T10:05:45;2.55;;;1.20;;
21820;SDS011;11073;48.586;12.066;2023-05-10T10:08:15;2.78;;;1.20;;
21820;SDS011;11073;48.586;12.066;2023-05-10T10:10:44;1.75;;;1.20;;
21820;SDS011;11073;48.586;12.066;2023-05-10T10:13:13;1.08;;;0.93;;
21820;SDS011;11073;48.586;12.066;2023-05-10T10:15:43;1.50;;;0.90;;
21820;SDS011;11073;48.586;12.066;2023-05-10T10:18:13;0.88;;;0.88;;
21820;SDS011;11073;48.586;12.066;2023-05-10T10:20:42;0.82;;;0.80;;
21820;SDS011;11073;48.586;12.066;2023-05-10T10:23:11;1.38;;;0.98;;
21820;SDS011;11073;48.586;12.066;2023-05-10T10:25:44;1.15;;;0.88;;
21820;SDS011;11073;48.586;12.066;2023-05-10T10:28:17;2.78;;;0.98;;
21820;SDS011;11073;48.586;12.066;2023-05-10T10:30:55;3.55;;;0.90;;
21820;SDS011;11073;48.586;12.066;2023-05-10T10:33:38;2.20;;;1.00;;
21820;SDS011;11073;48.586;12.066;2023-05-10T10:36:16;2.22;;;1.40;;
21820;SDS011;11073;48.586;12.066;2023-05-10T10:38:57;2.92;;;1.25;;
21820;SDS011;11073;48.586;12.066;2023-05-10T10:41:32;1.52;;;1.42;;
21820;SDS011;11073;48.586;12.066;2023-05-10T10:47:10;1.77;;;1.40;;
21820;SDS011;11073;48.586;12.066;2023-05-10T10:50:05;2.35;;;1.77;;
21820;SDS011;11073;48.586;12.066;2023-05-10T10:52:36;1.58;;;1.48;;
21820;SDS011;11073;48.586;12.066;2023-05-10T10:55:24;1.88;;;1.50;;
21820;SDS011;11073;48.586;12.066;2023-05-10T10:57:55;2.95;;;1.52;;
21820;SDS011;11073;48.586;12.066;2023-05-10T11:00:29;2.28;;;1.30;;
21820;SDS011;11073;48.586;12.066;2023-05-10T11:03:03;1.77;;;1.33;;
21820;SDS011;11073;48.586;12.066;2023-05-10T11:05:35;1.63;;;1.52;;
21820;SDS011;11073;48.586;12.066;2023-05-10T11:08:15;1.77;;;1.10;;
21820;SDS011;11073;48.586;12.066;2023-05-10T11:10:49;1.65;;;1.10;;
21820;SDS011;11073;48.586;12.066;2023-05-10T11:13:38;1.35;;;1.00;;
21820;SDS011;11073;48.586;12.066;2023-05-10T11:16:11;1.50;;;1.23;;
21820;SDS011;11073;48.586;12.066;2023-05-10T11:18:53;3.25;;;1.42;;
21820;SDS011;11073;48.586;12.066;2023-05-10T11:21:25;2.35;;;1.05;;
21820;SDS011;11073;48.586;12.066;2023-05-10T11:23:54;1.98;;;1.10;;
21820;SDS011;11073;48.586;12.066;2023-05-10T11:26:24;1.30;;;1.20;;
21820;SDS011;11073;48.586;12.066;2023-05-10T11:28:54;1.80;;;1.27;;
21820;SDS011;11073;48.586;12.066;2023-05-10T11:31:28;2.70;;;1.08;;
21820;SDS011;11073;48.586;12.066;2023-05-10T11:33:58;3.00;;;1.40;;
21820;SDS011;11073;48.586;12.066;2023-05-10T11:36:29;2.20;;;1.35;;
21820;SDS011;11073;48.586;12.066;2023-05-10T11:39:02;1.52;;;1.10;;
21820;SDS011;11073;48.586;12.066;2023-05-10T11:41:31;4.05;;;1.20;;
21820;SDS011;11073;48.586;12.066;2023-05-10T11:44:00;2.40;;;1.20;;
21820;SDS011;11073;48.586;12.066;2023-05-10T11:46:29;1.98;;;1.27;;
21820;SDS011;11073;48.586;12.066;2023-05-10T11:49:00;2.55;;;1.10;;
21820;SDS011;11073;48.586;12.066;2023-05-10T11:51:32;1.35;;;1.05;;
21820;SDS011;11073;48.586;12.066;2023-05-10T11:54:05;2.70;;;1.10;;
21820;SDS011;11073;48.586;12.066;2023-05-10T11:56:34;2.35;;;1.35;;
21820;SDS011;11073;48.586;12.066;2023-05-10T11:59:03;2.80;;;1.23;;
21820;SDS011;11073;48.586;12.066;2023-05-10T12:01:32;5.15;;;1.25;;
21820;SDS011;11073;48.586;12.066;2023-05-10T12:04:03;1.10;;;0.90;;
21820;SDS011;11073;48.586;12.066;2023-05-10T12:06:34;1.13;;;0.80;;
21820;SDS011;11073;48.586;12.066;2023-05-10T12:09:07;1.58;;;0.85;;
21820;SDS011;11073;48.586;12.066;2023-05-10T12:11:37;1.92;;;0.93;;
21820;SDS011;11073;48.586;12.066;2023-05-10T12:14:10;1.17;;;0.80;;
21820;SDS011;11073;48.586;12.066;2023-05-10T12:16:39;2.88;;;1.05;;
21820;SDS011;11073;48.586;12.066;2023-05-10T12:19:09;2.95;;;1.00;;
21820;SDS011;11073;48.586;12.066;2023-05-10T12:21:38;1.08;;;0.70;;
21820;SDS011;11073;48.586;12.066;2023-05-10T12:24:08;1.90;;;0.80;;
21820;SDS011;11073;48.586;12.066;2023-05-10T12:26:37;1.33;;;0.68;;
21820;SDS011;11073;48.586;12.066;2023-05-10T12:29:12;1.27;;;0.63;;
21820;SDS011;11073;48.586;12.066;2023-05-10T12:31:49;2.45;;;0.68;;
21820;SDS011;11073;48.586;12.066;2023-05-10T12:34:25;1.05;;;0.50;;
21820;SDS011;11073;48.586;12.066;2023-05-10T12:36:54;1.67;;;0.30;;
21820;SDS011;11073;48.586;12.066;2023-05-10T12:39:23;2.03;;;0.60;;
21820;SDS011;11073;48.586;12.066;2023-05-10T12:41:51;1.80;;;0.70;;
21820;SDS011;11073;48.586;12.066;2023-05-10T12:44:20;1.67;;;0.70;;
21820;SDS011;11073;48.586;12.066;2023-05-10T12:46:48;1.60;;;0.80;;
21820;SDS011;11073;48.586;12.066;2023-05-10T12:49:16;3.53;;;0.70;;
21820;SDS011;11073;48.586;12.066;2023-05-10T12:51:47;0.90;;;0.70;;
21820;SDS011;11073;48.586;12.066;2023-05-10T12:54:16;1.42;;;0.80;;
21820;SDS011;11073;48.586;12.066;2023-05-10T12:56:45;3.85;;;0.80;;
21820;SDS011;11073;48.586;12.066;2023-05-10T12:59:13;2.20;;;0.88;;
21820;SDS011;11073;48.586;12.066;2023-05-10T13:01:42;1.50;;;0.70;;
21820;SDS011;11073;48.586;12.066;2023-05-10T13:04:10;1.70;;;0.75;;
21820;SDS011;11073;48.586;12.066;2023-05-10T13:06:38;2.90;;;0.95;;
21820;SDS011;11073;48.586;12.066;2023-05-10T13:09:08;1.50;;;0.80;;
21820;SDS011;11073;48.586;12.066;2023-05-10T13:11:37;1.85;;;0.75;;
21820;SDS011;11073;48.586;12.066;2023-05-10T13:14:05;3.65;;;1.10;;
21820;SDS011;11073;48.586;12.066;2023-05-10T13:16:34;1.73;;;1.17;;
21820;SDS011;11073;48.586;12.066;2023-05-10T13:19:03;1.55;;;0.85;;
21820;SDS011;11073;48.586;12.066;2023-05-10T13:21:32;4.53;;;1.23;;
21820;SDS011;11073;48.586;12.066;2023-05-10T13:24:00;2.92;;;1.05;;
21820;SDS011;11073;48.586;12.066;2023-05-10T13:26:30;2.95;;;1.08;;
21820;SDS011;11073;48.586;12.066;2023-05-10T13:28:59;2.72;;;1.10;;
21820;SDS011;11073;48.586;12.066;2023-05-10T13:31:27;1.52;;;0.98;;
21820;SDS011;11073;48.586;12.066;2023-05-10T13:33:56;3.20;;;1.05;;
21820;SDS011;11073;48.586;12.066;2023-05-10T13:36:25;2.25;;;1.10;;
21820;SDS011;11073;48.586;12.066;2023-05-10T13:38:53;2.03;;;1.35;;
21820;SDS011;11073;48.586;12.066;2023-05-10T13:41:22;3.60;;;1.30;;
21820;SDS011;11073;48.586;12.066;2023-05-10T13:43:52;2.13;;;1.40;;
21820;SDS011;11073;48.586;12.066;2023-05-10T13:46:20;4.13;;;1.70;;
21820;SDS011;11073;48.586;12.066;2023-05-10T13:48:48;7.72;;;2.47;;
21820;SDS011;11073;48.586;12.066;2023-05-10T13:51:17;6.60;;;2.05;;
21820;SDS011;11073;48.586;12.066;2023-05-10T13:53:46;4.90;;;1.92;;
21820;SDS011;11073;48.586;12.066;2023-05-10T13:56:16;3.10;;;1.70;;
21820;SDS011;11073;48.586;12.066;2023-05-10T13:58:44;3.28;;;1.30;;
21820;SDS011;11073;48.586;12.066;2023-05-10T14:01:14;3.80;;;1.33;;
21820;SDS011;11073;48.586;12.066;2023-05-10T14:03:43;4.53;;;1.55;;
21820;SDS011;11073;48.586;12.066;2023-05-10T14:06:13;5.45;;;1.20;;
21820;SDS011;11073;48.586;12.066;2023-05-10T14:08:41;3.67;;;1.48;;
21820;SDS011;11073;48.586;12.066;2023-05-10T14:11:10;2.38;;;1.33;;
21820;SDS011;11073;48.586;12.066;2023-05-10T14:13:39;5.32;;;1.58;;
21820;SDS011;11073;48.586;12.066;2023-05-10T14:16:08;3.10;;;1.25;;
21820;SDS011;11073;48.586;12.066;2023-05-10T14:18:40;3.00;;;1.63;;
21820;SDS011;11073;48.586;12.066;2023-05-10T14:21:10;6.18;;;2.60;;
21820;SDS011;11073;48.586;12.066;2023-05-10T14:23:40;2.70;;;1.40;;
21820;SDS011;11073;48.586;12.066;2023-05-10T14:26:09;3.85;;;1.88;;
21820;SDS011;11073;48.586;12.066;2023-05-10T14:28:37;2.70;;;1.48;;
21820;SDS011;11073;48.586;12.066;2023-05-10T14:31:06;3.03;;;1.60;;
21820;SDS011;11073;48.586;12.066;2023-05-10T14:33:34;2.80;;;1.35;;
21820;SDS011;11073;48.586;12.066;2023-05-10T14:36:04;1.90;;;1.55;;
21820;SDS011;11073;48.586;12.066;2023-05-10T14:38:34;1.63;;;1.23;;
21820;SDS011;11073;48.586;12.066;2023-05-10T14:41:02;5.40;;;1.40;;
21820;SDS011;11073;48.586;12.066;2023-05-10T14:43:31;3.05;;;0.90;;
21820;SDS011;11073;48.586;12.066;2023-05-10T14:45:59;1.50;;;1.08;;
21820;SDS011;11073;48.586;12.066;2023-05-10T14:48:28;1.83;;;1.05;;
21820;SDS011;11073;48.586;12.066;2023-05-10T14:50:57;3.50;;;1.33;;
21820;SDS011;11073;48.586;12.066;2023-05-10T14:53:26;2.83;;;1.40;;
21820;SDS011;11073;48.586;12.066;2023-05-10T14:55:55;3.15;;;1.80;;
21820;SDS011;11073;48.586;12.066;2023-05-10T14:58:24;4.53;;;1.50;;
21820;SDS011;11073;48.586;12.066;2023-05-10T15:00:52;3.85;;;1.30;;
21820;SDS011;11073;48.586;12.066;2023-05-10T15:03:21;2.60;;;1.45;;
21820;SDS011;11073;48.586;12.066;2023-05-10T15:05:51;3.22;;;1.58;;